Time;durP1;ratioP1;P1;durP2;ratioP2;P2;SDS_P1;SDS_P2;PMS_P1;PMS_P2;Temp;Humidity;BMP_temperature;BMP_pressure;BME280_temperature;BME280_humidity;BME280_pressure;Samples;Min_cycle;Max_cycle;Signal;HPM_P1;HPM_P2
2022/11/18 00:00:48;;;;;;;22.75;17.83;;;7.10;99.90;;;;;;4996409;28;20195;-74
2022/11/18 00:03:14;;;;;;;23.35;17.67;;;7.10;99.90;;;;;;4995229;28;20182;-74
2022/11/18 00:05:40;;;;;;;25.27;18.25;;;7.10;99.90;;;;;;4994306;28;20239;-75
2022/11/18 00:08:06;;;;;;;19.98;16.48;;;7.10;99.90;;;;;;4986748;28;20194;-74
2022/11/18 00:10:31;;;;;;;21.08;15.95;;;7.10;99.90;;;;;;4992883;28;20182;-74
2022/11/18 00:15:41;;;;;;;22.33;16.58;;;7.20;99.90;;;;;;4993474;28;20743;-74
2022/11/18 00:18:07;;;;;;;22.73;16.27;;;7.20;99.90;;;;;;4990927;28;20260;-74
2022/11/18 00:20:34;;;;;;;20.10;15.93;;;7.20;99.90;;;;;;4991916;28;20182;-74
2022/11/18 00:22:59;;;;;;;21.90;16.83;;;7.20;99.90;;;;;;4991546;28;20181;-74
2022/11/18 00:25:25;;;;;;;19.95;15.77;;;7.20;99.90;;;;;;4989969;28;20201;-74
2022/11/18 00:27:51;;;;;;;24.95;17.17;;;7.20;99.90;;;;;;4991927;28;20555;-74
2022/11/18 00:30:16;;;;;;;23.20;17.40;;;7.20;99.90;;;;;;4992225;28;20185;-74
2022/11/18 00:32:43;;;;;;;19.05;16.50;;;7.20;99.90;;;;;;4993083;28;20556;-74
2022/11/18 00:35:09;;;;;;;21.20;17.40;;;7.20;99.90;;;;;;4997488;28;20201;-74
2022/11/18 00:37:35;;;;;;;22.42;17.30;;;7.10;99.90;;;;;;4994471;28;20174;-74
2022/11/18 00:40:00;;;;;;;22.00;16.85;;;7.10;99.90;;;;;;4991774;28;20644;-74
2022/11/18 00:45:10;;;;;;;20.73;15.60;;;7.10;99.90;;;;;;4987739;28;20276;-74
2022/11/18 00:47:36;;;;;;;22.80;16.40;;;7.10;99.90;;;;;;4991557;28;20232;-74
2022/11/18 00:50:01;;;;;;;20.77;16.48;;;7.20;99.90;;;;;;4993965;28;20702;-74
2022/11/18 00:52:27;;;;;;;23.80;18.05;;;7.20;99.90;;;;;;4991302;28;20209;-74
2022/11/18 00:54:52;;;;;;;22.00;17.15;;;7.10;99.90;;;;;;4991595;28;20205;-73
2022/11/18 00:57:18;;;;;;;24.95;18.45;;;7.10;99.90;;;;;;4991772;28;20196;-74
2022/11/18 00:59:43;;;;;;;21.30;16.60;;;7.00;99.90;;;;;;4987835;28;20182;-73
2022/11/18 01:02:09;;;;;;;20.40;16.30;;;7.10;99.90;;;;;;4987200;28;20217;-74
2022/11/18 01:04:34;;;;;;;24.52;17.83;;;7.10;99.90;;;;;;4991295;28;20248;-74
2022/11/18 01:07:00;;;;;;;20.88;16.60;;;7.10;99.90;;;;;;4994059;28;20563;-74
2022/11/18 01:09:26;;;;;;;24.25;17.52;;;7.10;99.90;;;;;;5008952;28;20225;-74
2022/11/18 01:14:35;;;;;;;20.90;15.80;;;7.00;99.90;;;;;;4994144;28;20220;-74
2022/11/18 01:17:01;;;;;;;22.77;17.35;;;7.10;99.90;;;;;;4995626;28;20170;-74
2022/11/18 01:19:26;;;;;;;23.08;17.10;;;7.10;99.90;;;;;;4995270;28;20181;-74
2022/11/18 01:21:52;;;;;;;20.27;15.80;;;7.10;99.90;;;;;;4995364;28;20209;-74
2022/11/18 01:24:18;;;;;;;19.58;16.33;;;7.10;99.90;;;;;;5002561;28;20270;-75
2022/11/18 01:26:43;;;;;;;21.02;16.17;;;7.20;99.90;;;;;;5006067;28;20551;-74
2022/11/18 01:29:09;;;;;;;20.33;15.50;;;7.20;99.90;;;;;;4996405;28;20209;-74
2022/11/18 01:31:36;;;;;;;18.45;15.52;;;7.20;99.90;;;;;;5001591;28;20621;-74
2022/11/18 01:34:02;;;;;;;20.02;16.73;;;7.20;99.90;;;;;;4993823;28;20212;-73
2022/11/18 01:36:28;;;;;;;20.02;14.15;;;7.10;99.90;;;;;;4993633;28;20605;-73
2022/11/18 01:38:54;;;;;;;21.98;17.40;;;7.10;99.90;;;;;;4995218;28;20170;-74
2022/11/18 01:41:23;;;;;;;20.70;15.60;;;7.10;99.90;;;;;;5001735;28;20729;-73
2022/11/18 01:43:56;;;;;;;21.48;14.63;;;7.10;99.90;;;;;;5006501;28;20689;-73
2022/11/18 01:46:24;;;;;;;20.23;16.23;;;7.20;99.90;;;;;;5006610;28;20177;-73
2022/11/18 01:48:55;;;;;;;20.13;15.63;;;7.20;99.90;;;;;;4993331;28;20209;-73
2022/11/18 01:51:34;;;;;;;19.85;16.63;;;7.20;99.90;;;;;;4984389;28;20218;-73
2022/11/18 01:54:11;;;;;;;20.05;16.42;;;7.20;99.90;;;;;;4994633;28;20735;-74
2022/11/18 01:56:43;;;;;;;20.42;15.73;;;7.20;99.90;;;;;;5000007;28;20546;-74
2022/11/18 01:59:15;;;;;;;20.83;16.58;;;7.20;99.90;;;;;;5002358;28;20185;-74
2022/11/18 02:01:41;;;;;;;20.80;15.68;;;7.20;99.90;;;;;;4994640;28;20174;-73
2022/11/18 02:04:08;;;;;;;20.42;16.48;;;7.30;99.90;;;;;;4997974;28;20568;-74
2022/11/18 02:06:35;;;;;;;23.10;16.40;;;7.20;99.90;;;;;;4993254;28;20182;-73
2022/11/18 02:09:01;;;;;;;20.58;16.20;;;7.10;99.90;;;;;;4988713;28;20177;-74
2022/11/18 02:14:12;;;;;;;23.08;16.95;;;7.20;99.90;;;;;;5007733;28;20207;-74
2022/11/18 02:17:18;;;;;;;24.88;17.73;;;7.20;99.90;;;;;;4991017;28;20186;-74
2022/11/18 02:19:47;;;;;;;20.55;16.33;;;7.20;99.90;;;;;;4933625;29;20230;-73
2022/11/18 02:22:24;;;;;;;19.33;15.88;;;7.20;99.90;;;;;;4980369;28;20273;-73
2022/11/18 02:25:14;;;;;;;23.20;16.50;;;7.10;99.90;;;;;;4985464;28;20205;-73
2022/11/18 02:28:17;;;;;;;23.38;17.23;;;7.10;99.90;;;;;;4984072;28;20193;-74
2022/11/18 02:30:55;;;;;;;21.77;16.75;;;7.20;99.90;;;;;;4988667;28;20190;-74
2022/11/18 02:33:35;;;;;;;23.65;18.02;;;7.20;99.90;;;;;;4990368;28;20257;-74
2022/11/18 02:36:27;;;;;;;21.67;17.48;;;7.20;99.90;;;;;;4991430;28;20178;-73
2022/11/18 02:39:01;;;;;;;25.38;17.67;;;7.20;99.90;;;;;;4974918;28;20196;-74
2022/11/18 02:41:31;;;;;;;25.70;19.05;;;7.30;99.90;;;;;;4990869;28;20252;-74
2022/11/18 02:44:14;;;;;;;25.60;18.00;;;7.20;99.90;;;;;;4986845;28;20641;-74
2022/11/18 02:46:44;;;;;;;24.73;17.98;;;7.20;99.90;;;;;;4990235;28;20198;-74
2022/11/18 02:49:17;;;;;;;29.35;20.08;;;7.20;99.90;;;;;;4986735;28;20237;-74
2022/11/18 02:51:45;;;;;;;23.95;17.02;;;7.20;99.90;;;;;;4989340;28;20730;-74
2022/11/18 02:54:12;;;;;;;27.10;18.40;;;7.20;99.90;;;;;;4993732;28;20206;-74
2022/11/18 02:56:38;;;;;;;23.00;18.05;;;7.20;99.90;;;;;;4992510;28;20273;-74
2022/11/18 02:59:04;;;;;;;26.10;19.33;;;7.20;99.90;;;;;;4988596;28;20269;-74
2022/11/18 03:01:32;;;;;;;24.60;19.40;;;7.20;99.90;;;;;;4990897;28;20344;-73
2022/11/18 03:03:58;;;;;;;25.17;18.92;;;7.10;99.90;;;;;;5000683;28;20206;-74
2022/11/18 03:06:29;;;;;;;26.60;18.27;;;7.00;99.90;;;;;;4993486;28;20588;-74
2022/11/18 03:09:01;;;;;;;21.13;17.30;;;7.00;99.90;;;;;;4987510;28;20178;-74
2022/11/18 03:11:55;;;;;;;27.85;19.83;;;7.10;99.90;;;;;;4987941;28;20217;-74
2022/11/18 03:14:57;;;;;;;21.98;17.73;;;7.10;99.90;;;;;;4994469;28;20588;-73
2022/11/18 03:17:29;;;;;;;22.05;16.48;;;7.20;99.90;;;;;;4984944;28;20567;-73
2022/11/18 03:20:11;;;;;;;27.80;19.83;;;7.20;99.90;;;;;;4992878;28;20177;-73
2022/11/18 03:22:43;;;;;;;25.92;19.35;;;7.20;99.90;;;;;;4993246;28;20555;-74
2022/11/18 03:25:40;;;;;;;26.55;20.23;;;7.20;99.90;;;;;;4991953;28;20205;-74
2022/11/18 03:28:17;;;;;;;23.88;18.02;;;7.10;99.90;;;;;;4980949;28;20190;-73
2022/11/18 03:30:54;;;;;;;23.63;17.38;;;7.10;99.90;;;;;;4985554;28;20186;-73
2022/11/18 03:33:24;;;;;;;21.98;16.80;;;7.10;99.90;;;;;;4991283;28;20174;-73
2022/11/18 03:35:52;;;;;;;22.75;16.95;;;7.20;99.90;;;;;;4997159;28;20695;-73
2022/11/18 03:38:24;;;;;;;23.33;17.17;;;7.20;99.90;;;;;;4995882;28;20190;-73
2022/11/18 03:40:54;;;;;;;25.63;18.70;;;7.20;99.90;;;;;;4992642;28;20179;-74
2022/11/18 03:43:26;;;;;;;23.90;16.73;;;7.10;99.90;;;;;;4987603;28;20282;-74
2022/11/18 03:46:17;;;;;;;24.88;17.75;;;7.20;99.90;;;;;;4986409;28;20197;-74
2022/11/18 03:48:54;;;;;;;25.88;19.13;;;7.20;99.90;;;;;;4989803;28;20189;-74
2022/11/18 03:51:28;;;;;;;27.48;18.70;;;7.20;99.90;;;;;;4991489;28;20212;-74
2022/11/18 03:54:04;;;;;;;25.23;18.92;;;7.20;99.90;;;;;;4983022;28;20200;-74
2022/11/18 03:56:36;;;;;;;28.25;19.83;;;7.10;99.90;;;;;;4986080;28;20184;-74
2022/11/18 03:59:10;;;;;;;29.45;20.52;;;7.10;99.90;;;;;;4987387;28;20197;-74
2022/11/18 04:01:51;;;;;;;27.25;18.83;;;7.00;99.90;;;;;;4987289;28;22119;-74
2022/11/18 04:04:18;;;;;;;25.38;19.17;;;7.10;99.90;;;;;;4995581;28;20225;-73
2022/11/18 04:06:44;;;;;;;26.65;18.65;;;7.10;99.90;;;;;;4986802;28;20184;-73
2022/11/18 04:09:23;;;;;;;28.73;19.17;;;7.10;99.90;;;;;;4987010;28;20186;-74
2022/11/18 04:12:01;;;;;;;24.10;18.55;;;7.00;99.90;;;;;;4989312;28;20201;-73
2022/11/18 04:14:28;;;;;;;25.38;18.08;;;6.90;99.90;;;;;;4985500;28;20198;-74
2022/11/18 04:16:54;;;;;;;23.48;17.08;;;6.90;99.90;;;;;;4985616;28;20184;-73
2022/11/18 04:19:20;;;;;;;26.52;19.08;;;6.90;99.90;;;;;;4988238;28;20256;-73
2022/11/18 04:21:48;;;;;;;27.58;20.10;;;6.90;99.90;;;;;;4989088;28;20185;-73
2022/11/18 04:24:14;;;;;;;27.15;18.52;;;6.90;99.90;;;;;;4987629;28;20209;-73
2022/11/18 04:26:40;;;;;;;28.45;20.63;;;6.90;99.90;;;;;;4988831;28;21174;-73
2022/11/18 04:29:06;;;;;;;27.38;19.75;;;7.00;99.90;;;;;;4982351;28;20198;-73
2022/11/18 04:31:32;;;;;;;27.90;18.00;;;7.00;99.90;;;;;;4994965;28;20201;-73
2022/11/18 04:33:57;;;;;;;31.42;19.98;;;7.10;99.90;;;;;;4992715;28;20201;-74
2022/11/18 04:36:23;;;;;;;28.90;19.75;;;7.10;99.90;;;;;;4991294;28;20186;-74
2022/11/18 04:38:48;;;;;;;27.90;20.02;;;7.10;99.90;;;;;;5002104;28;20192;-74
2022/11/18 04:41:14;;;;;;;29.63;19.33;;;7.10;99.90;;;;;;4983196;28;20194;-74
2022/11/18 04:43:41;;;;;;;29.40;20.15;;;7.00;99.90;;;;;;4995102;28;20654;-74
2022/11/18 04:46:07;;;;;;;30.00;20.70;;;7.00;99.90;;;;;;5001946;28;20209;-74
2022/11/18 04:48:33;;;;;;;25.15;18.42;;;7.00;99.90;;;;;;4998712;28;20194;-74
2022/11/18 04:51:05;;;;;;;26.50;19.15;;;7.00;99.90;;;;;;4999651;28;20205;-74
2022/11/18 04:53:31;;;;;;;27.90;19.10;;;7.10;99.90;;;;;;4994767;28;20204;-74
2022/11/18 04:56:04;;;;;;;22.25;17.02;;;7.10;99.90;;;;;;4995962;28;20644;-74
2022/11/18 04:58:29;;;;;;;24.45;17.30;;;7.10;99.90;;;;;;4995021;28;20178;-74
2022/11/18 05:00:55;;;;;;;26.85;18.00;;;7.10;99.90;;;;;;4992300;28;20640;-74
2022/11/18 05:03:20;;;;;;;26.60;18.48;;;7.10;99.90;;;;;;4996036;28;20683;-74
2022/11/18 05:05:46;;;;;;;28.25;18.77;;;7.10;99.90;;;;;;4995575;28;20182;-73
2022/11/18 05:08:12;;;;;;;24.83;17.63;;;7.10;99.90;;;;;;4993937;28;20220;-73
2022/11/18 05:10:37;;;;;;;27.67;18.55;;;7.00;99.90;;;;;;4995467;28;20185;-73
2022/11/18 05:13:03;;;;;;;28.35;17.60;;;7.00;99.90;;;;;;4997194;28;20197;-73
2022/11/18 05:15:28;;;;;;;25.77;19.13;;;7.10;99.90;;;;;;5010542;28;20184;-73
2022/11/18 05:17:54;;;;;;;26.38;18.67;;;7.10;99.90;;;;;;4998526;28;20178;-73
2022/11/18 05:20:20;;;;;;;22.95;16.80;;;7.00;99.90;;;;;;4990463;28;20224;-74
2022/11/18 05:22:46;;;;;;;22.27;17.00;;;7.10;99.90;;;;;;4992925;28;20181;-74
2022/11/18 05:25:11;;;;;;;26.90;18.38;;;7.20;99.90;;;;;;4992466;28;20285;-74
2022/11/18 05:27:37;;;;;;;25.88;17.73;;;7.20;99.90;;;;;;4987022;28;20688;-74
2022/11/18 05:30:03;;;;;;;24.40;17.48;;;7.20;99.90;;;;;;4996059;28;20703;-74
2022/11/18 05:32:29;;;;;;;23.50;18.13;;;7.10;99.90;;;;;;4990907;28;20233;-74
2022/11/18 05:34:54;;;;;;;23.40;17.20;;;7.10;99.90;;;;;;4995227;28;20233;-73
2022/11/18 05:37:20;;;;;;;23.30;17.77;;;7.00;99.90;;;;;;4991973;28;20193;-73
2022/11/18 05:39:45;;;;;;;20.05;15.98;;;6.90;99.90;;;;;;4990293;28;20182;-74
2022/11/18 05:44:55;;;;;;;19.63;15.65;;;6.90;99.90;;;;;;4995245;28;20207;-74
2022/11/18 05:47:23;;;;;;;19.98;15.05;;;6.90;99.90;;;;;;4990718;28;20182;-74
2022/11/18 05:49:49;;;;;;;20.45;15.95;;;6.90;99.90;;;;;;4991120;28;20182;-73
2022/11/18 05:52:15;;;;;;;19.23;15.40;;;6.90;99.90;;;;;;4989379;28;20556;-73
2022/11/18 05:54:49;;;;;;;17.88;14.55;;;6.90;99.90;;;;;;4990258;28;20661;-74
2022/11/18 05:57:14;;;;;;;21.52;15.52;;;6.90;99.90;;;;;;4989919;28;20269;-74
2022/11/18 05:59:40;;;;;;;17.05;14.05;;;6.90;99.90;;;;;;4986804;28;20277;-74
2022/11/18 06:02:13;;;;;;;16.20;14.25;;;7.00;99.90;;;;;;4989372;28;20186;-73
2022/11/18 06:04:47;;;;;;;17.70;14.43;;;7.00;99.90;;;;;;4997418;28;20193;-73
2022/11/18 06:07:21;;;;;;;19.38;14.82;;;6.90;99.90;;;;;;4988504;28;20177;-73
2022/11/18 06:09:51;;;;;;;20.17;14.50;;;6.90;99.90;;;;;;4987049;28;20546;-74
2022/11/18 06:12:22;;;;;;;18.23;14.73;;;6.90;99.90;;;;;;5004473;28;20209;-74
2022/11/18 06:14:56;;;;;;;19.95;15.30;;;6.90;99.90;;;;;;4993525;28;20190;-73
2022/11/18 06:17:27;;;;;;;20.33;15.07;;;6.90;99.90;;;;;;4996365;28;20204;-74
2022/11/18 06:19:52;;;;;;;16.83;14.13;;;6.90;99.90;;;;;;4992524;28;20190;-74
2022/11/18 06:22:18;;;;;;;20.38;15.35;;;6.90;99.90;;;;;;5002075;28;20193;-74
2022/11/18 06:24:44;;;;;;;19.00;15.10;;;6.90;99.90;;;;;;4992299;28;20276;-73
2022/11/18 06:27:11;;;;;;;18.83;14.55;;;6.90;99.90;;;;;;4993042;28;20208;-77
2022/11/18 06:29:36;;;;;;;20.95;14.95;;;6.90;99.90;;;;;;4987468;28;20578;-74
2022/11/18 06:32:02;;;;;;;16.20;13.77;;;6.90;99.90;;;;;;4993597;28;20218;-73
2022/11/18 06:34:28;;;;;;;16.27;13.25;;;6.90;99.90;;;;;;4993730;28;20672;-74
2022/11/18 06:36:53;;;;;;;16.73;13.75;;;6.90;99.90;;;;;;5001992;28;20641;-74
2022/11/18 06:39:20;;;;;;;16.00;12.73;;;6.90;99.90;;;;;;4990429;28;20196;-76
2022/11/18 06:41:45;;;;;;;17.05;13.02;;;7.00;99.90;;;;;;4987066;28;20181;-77
2022/11/18 06:44:11;;;;;;;17.25;12.30;;;7.10;99.90;;;;;;4993950;28;20276;-77
2022/11/18 06:46:56;;;;;;;15.45;12.02;;;7.10;99.90;;;;;;4994362;28;20198;-77
2022/11/18 06:49:25;;;;;;;15.15;13.45;;;7.10;99.90;;;;;;4995314;28;20177;-77
2022/11/18 06:51:51;;;;;;;15.80;12.23;;;7.10;99.90;;;;;;4994110;28;20201;-77
2022/11/18 06:54:17;;;;;;;15.82;12.23;;;7.30;99.90;;;;;;4990373;28;20232;-76
2022/11/18 06:56:42;;;;;;;14.05;11.73;;;7.30;99.90;;;;;;4993862;28;20174;-77
2022/11/18 06:59:08;;;;;;;13.40;11.77;;;7.30;99.90;;;;;;4999063;28;20708;-77
2022/11/18 07:01:36;;;;;;;17.10;13.43;;;7.40;99.90;;;;;;4997188;28;20192;-77
2022/11/18 07:04:03;;;;;;;14.30;12.13;;;7.30;99.90;;;;;;4994739;28;20616;-77
2022/11/18 07:06:31;;;;;;;14.75;12.93;;;7.20;99.90;;;;;;4988262;28;20194;-77
2022/11/18 07:09:00;;;;;;;14.18;12.52;;;7.20;99.90;;;;;;4992530;28;20209;-77
2022/11/18 07:11:26;;;;;;;14.38;12.55;;;7.20;99.90;;;;;;4989460;28;20888;-76
2022/11/18 07:13:52;;;;;;;13.32;11.93;;;7.10;99.90;;;;;;4988175;28;20202;-76
2022/11/18 07:16:20;;;;;;;11.95;10.75;;;7.10;99.90;;;;;;4995924;28;20186;-77
2022/11/18 07:18:47;;;;;;;11.82;10.60;;;7.20;99.90;;;;;;4995902;28;20181;-75
2022/11/18 07:21:24;;;;;;;11.60;10.50;;;7.30;99.90;;;;;;4999363;28;20241;-75
2022/11/18 07:23:50;;;;;;;12.18;10.90;;;7.20;99.90;;;;;;4982519;28;20594;-75
2022/11/18 07:26:16;;;;;;;14.60;12.57;;;7.20;99.90;;;;;;5000282;28;20193;-75
2022/11/18 07:28:42;;;;;;;13.82;11.52;;;7.30;99.90;;;;;;4993123;28;20173;-76
2022/11/18 07:31:09;;;;;;;12.98;11.45;;;7.30;99.90;;;;;;4993303;28;20214;-76
2022/11/18 07:33:35;;;;;;;11.80;10.60;;;7.40;99.90;;;;;;4988449;28;20206;-75
2022/11/18 07:36:07;;;;;;;11.93;10.68;;;7.40;99.90;;;;;;4992843;28;20186;-75
2022/11/18 07:38:32;;;;;;;11.60;10.40;;;7.50;99.90;;;;;;4993800;28;20248;-76
2022/11/18 07:41:21;;;;;;;11.57;10.38;;;7.50;99.90;;;;;;4995214;28;20188;-76
2022/11/18 07:43:49;;;;;;;12.75;11.15;;;7.70;99.90;;;;;;4984850;28;20206;-75
2022/11/18 07:46:22;;;;;;;11.40;10.27;;;7.70;99.90;;;;;;4981510;28;20182;-76
2022/11/18 07:48:50;;;;;;;12.20;10.65;;;7.80;99.90;;;;;;4994775;28;20178;-76
2022/11/18 07:51:19;;;;;;;11.93;10.73;;;7.90;99.90;;;;;;4987907;28;20205;-76
2022/11/18 07:53:46;;;;;;;11.35;9.68;;;8.10;99.90;;;;;;4990479;28;20700;-80
2022/11/18 07:56:12;;;;;;;10.55;9.45;;;8.10;99.90;;;;;;4998375;28;20173;-77
2022/11/18 07:58:39;;;;;;;10.57;9.30;;;8.10;99.90;;;;;;4987539;28;20180;-76
2022/11/18 08:01:10;;;;;;;10.10;9.10;;;8.20;99.90;;;;;;5005174;28;20193;-77
2022/11/18 08:03:36;;;;;;;10.35;9.27;;;8.30;99.90;;;;;;5000665;28;20571;-75
2022/11/18 08:06:04;;;;;;;9.40;8.50;;;8.20;99.90;;;;;;4993944;28;20186;-78
2022/11/18 08:08:29;;;;;;;10.75;9.68;;;8.30;99.90;;;;;;5005438;28;20288;-79
2022/11/18 08:11:00;;;;;;;11.30;10.10;;;8.30;99.90;;;;;;4992719;28;20684;-76
2022/11/18 08:13:27;;;;;;;10.60;9.50;;;8.30;99.90;;;;;;4993403;28;20572;-76
2022/11/18 08:15:55;;;;;;;9.65;8.68;;;8.30;99.90;;;;;;5000496;28;20184;-75
2022/11/18 08:18:21;;;;;;;10.70;9.70;;;8.40;99.90;;;;;;4989553;28;20213;-74
2022/11/18 08:20:47;;;;;;;12.10;8.98;;;8.50;99.90;;;;;;4992522;28;20174;-75
2022/11/18 08:23:13;;;;;;;10.32;8.73;;;8.40;99.90;;;;;;4991705;28;20181;-75
2022/11/18 08:25:40;;;;;;;9.65;8.68;;;8.20;99.90;;;;;;4991712;28;20224;-75
2022/11/18 08:28:06;;;;;;;10.52;9.48;;;8.00;99.90;;;;;;4992713;28;20263;-75
2022/11/18 08:30:34;;;;;;;9.88;8.90;;;8.00;99.90;;;;;;4988417;28;20605;-74
2022/11/18 08:33:00;;;;;;;12.50;9.52;;;7.90;99.90;;;;;;4994029;28;20249;-72
2022/11/18 08:35:27;;;;;;;9.95;8.95;;;8.00;99.90;;;;;;4988678;28;20217;-72
2022/11/18 08:37:53;;;;;;;10.32;9.32;;;8.10;99.90;;;;;;4985831;28;20209;-72
2022/11/18 08:40:18;;;;;;;10.50;9.50;;;8.10;99.90;;;;;;4997271;28;20201;-73
2022/11/18 08:42:44;;;;;;;11.65;10.45;;;8.10;99.90;;;;;;4991569;28;20229;-73
2022/11/18 08:45:09;;;;;;;10.77;9.65;;;8.20;99.90;;;;;;4989895;28;20194;-73
2022/11/18 08:47:36;;;;;;;10.05;9.05;;;8.30;99.90;;;;;;4991278;28;20232;-75
2022/11/18 08:50:03;;;;;;;9.25;8.32;;;8.40;99.90;;;;;;4993364;28;20281;-75
2022/11/18 08:52:29;;;;;;;9.77;8.82;;;8.50;99.90;;;;;;4991704;28;20210;-75
2022/11/18 08:54:55;;;;;;;9.10;8.23;;;8.60;99.90;;;;;;4986990;28;20193;-73
2022/11/18 08:57:20;;;;;;;7.18;6.32;;;8.70;99.90;;;;;;4991898;28;20253;-74
2022/11/18 08:59:46;;;;;;;5.63;5.13;;;8.80;99.90;;;;;;4981823;28;20230;-74
2022/11/18 09:02:18;;;;;;;6.03;5.43;;;8.70;99.90;;;;;;4991788;28;20218;-74
2022/11/18 09:04:46;;;;;;;4.60;4.20;;;8.70;99.90;;;;;;4991616;28;20240;-74
2022/11/18 09:07:11;;;;;;;4.35;4.00;;;8.50;99.90;;;;;;4989358;28;20223;-74
2022/11/18 09:09:37;;;;;;;4.10;3.80;;;8.50;99.90;;;;;;4987519;28;20186;-73
2022/11/18 09:12:04;;;;;;;3.42;3.13;;;8.50;99.90;;;;;;4991333;28;20320;-73
2022/11/18 09:14:29;;;;;;;4.90;3.63;;;8.60;99.90;;;;;;4991148;28;20198;-73
2022/11/18 09:16:55;;;;;;;5.10;3.70;;;8.60;99.90;;;;;;4991966;28;20190;-73
2022/11/18 09:19:21;;;;;;;4.03;3.63;;;8.60;99.90;;;;;;4989322;28;20186;-73
2022/11/18 09:21:46;;;;;;;3.80;3.55;;;8.60;99.90;;;;;;4994665;28;20178;-73
2022/11/18 09:24:12;;;;;;;2.90;2.60;;;8.60;99.90;;;;;;4995129;28;20591;-73
2022/11/18 09:26:37;;;;;;;2.25;1.92;;;8.70;99.90;;;;;;4984757;28;20170;-74
2022/11/18 09:29:04;;;;;;;2.72;2.53;;;8.70;99.90;;;;;;4991584;28;20209;-73
2022/11/18 09:31:29;;;;;;;5.43;3.03;;;8.70;99.90;;;;;;4994997;28;20198;-73
2022/11/18 09:33:57;;;;;;;3.10;2.75;;;8.70;99.90;;;;;;4994881;28;20532;-72
2022/11/18 09:36:24;;;;;;;2.20;2.10;;;8.70;99.90;;;;;;4995516;28;20656;-73
2022/11/18 09:38:50;;;;;;;1.95;1.85;;;8.80;99.90;;;;;;4995570;28;20178;-72
2022/11/18 09:41:45;;;;;;;6.15;2.72;;;8.80;99.90;;;;;;4997067;28;20220;-75
2022/11/18 09:44:22;;;;;;;0.93;0.93;;;8.80;99.90;;;;;;4990930;28;20308;-71
2022/11/18 09:46:54;;;;;;;5.07;2.40;;;8.90;99.90;;;;;;4987356;28;20274;-72
2022/11/18 09:49:27;;;;;;;2.40;1.30;;;8.90;99.90;;;;;;4996823;28;20192;-75
2022/11/18 09:51:54;;;;;;;3.90;1.52;;;8.90;99.90;;;;;;4993479;28;20680;-73
2022/11/18 09:54:23;;;;;;;1.15;1.15;;;8.90;99.90;;;;;;4991464;28;20210;-75
2022/11/18 09:56:51;;;;;;;1.40;1.25;;;8.90;99.90;;;;;;4990694;28;20177;-71
2022/11/18 09:59:22;;;;;;;0.60;0.60;;;8.90;99.90;;;;;;4991388;28;20191;-71
2022/11/18 10:01:50;;;;;;;0.68;0.68;;;8.80;99.90;;;;;;4993586;28;20177;-72
2022/11/18 10:04:18;;;;;;;1.52;1.42;;;8.70;99.90;;;;;;4995421;28;20206;-71
2022/11/18 10:06:45;;;;;;;1.35;1.23;;;8.60;99.90;;;;;;4993368;28;20272;-71
2022/11/18 10:09:21;;;;;;;0.75;0.75;;;8.40;99.90;;;;;;4994496;28;20188;-71
2022/11/18 10:12:11;;;;;;;1.23;1.23;;;8.40;99.90;;;;;;4990317;28;20202;-71
2022/11/18 10:14:55;;;;;;;1.20;1.20;;;8.20;99.90;;;;;;4993357;28;20205;-72
2022/11/18 10:17:34;;;;;;;0.77;0.77;;;8.20;99.90;;;;;;4997426;28;20218;-72
2022/11/18 10:20:31;;;;;;;1.02;1.02;;;8.10;99.90;;;;;;4981247;28;20175;-71
2022/11/18 10:23:16;;;;;;;2.00;1.20;;;8.10;99.90;;;;;;4992019;28;20171;-73
2022/11/18 10:25:41;;;;;;;1.75;0.98;;;8.20;99.90;;;;;;4991218;28;20174;-71
2022/11/18 10:28:29;;;;;;;0.50;0.50;;;8.30;99.90;;;;;;4993270;28;20236;-71
2022/11/18 10:31:11;;;;;;;0.75;0.75;;;8.30;99.90;;;;;;4993848;28;20293;-71
2022/11/18 10:33:37;;;;;;;0.70;0.70;;;8.30;99.90;;;;;;4994395;28;20213;-73
2022/11/18 10:36:11;;;;;;;0.57;0.57;;;8.30;99.90;;;;;;4992640;28;20178;-73
2022/11/18 10:38:36;;;;;;;0.68;0.68;;;8.20;99.90;;;;;;4992611;28;20277;-73
2022/11/18 10:41:07;;;;;;;0.70;0.70;;;8.30;99.90;;;;;;4989011;28;20281;-73
2022/11/18 10:43:53;;;;;;;0.75;0.75;;;8.20;99.90;;;;;;4990477;28;20217;-73
2022/11/18 10:46:27;;;;;;;0.98;0.98;;;8.20;99.90;;;;;;4996297;28;20182;-73
2022/11/18 10:49:13;;;;;;;0.70;0.70;;;8.20;99.90;;;;;;4996371;28;20341;-73
2022/11/18 10:51:41;;;;;;;0.98;0.68;;;8.10;99.90;;;;;;4992336;28;20288;-75
2022/11/18 10:54:18;;;;;;;0.77;0.73;;;8.20;99.90;;;;;;4992730;28;20232;-73
2022/11/18 10:57:22;;;;;;;0.90;0.90;;;8.10;99.90;;;;;;4990126;28;20174;-73
2022/11/18 10:59:52;;;;;;;1.05;0.93;;;8.10;99.90;;;;;;4985690;28;20197;-73
2022/11/18 11:02:20;;;;;;;1.20;1.13;;;8.20;99.90;;;;;;4993567;28;20186;-73
2022/11/18 11:04:50;;;;;;;1.10;1.10;;;8.10;99.90;;;;;;4992953;28;20205;-73
2022/11/18 11:07:23;;;;;;;0.57;0.57;;;8.10;99.90;;;;;;4991065;28;20851;-73
2022/11/18 11:10:21;;;;;;;1.33;1.00;;;8.00;99.90;;;;;;4984714;28;20324;-73
2022/11/18 11:12:54;;;;;;;0.80;0.80;;;8.10;99.90;;;;;;4969125;28;20264;-73
2022/11/18 11:15:45;;;;;;;1.45;1.35;;;8.00;99.90;;;;;;4991506;28;20664;-73
2022/11/18 11:18:42;;;;;;;1.00;1.00;;;8.00;99.90;;;;;;4991927;28;20201;-74
2022/11/18 11:21:13;;;;;;;0.63;0.63;;;8.00;99.90;;;;;;4989458;28;20189;-74
2022/11/18 11:23:40;;;;;;;1.27;1.27;;;8.00;99.90;;;;;;4991138;28;20206;-73
2022/11/18 11:26:36;;;;;;;1.13;1.13;;;8.00;99.90;;;;;;4983735;28;20575;-73
2022/11/18 11:29:37;;;;;;;1.55;0.85;;;8.00;99.90;;;;;;4981062;28;20191;-74
2022/11/18 11:32:24;;;;;;;1.00;1.00;;;8.00;99.90;;;;;;4982575;28;20213;-73
2022/11/18 11:35:14;;;;;;;0.70;0.70;;;7.90;99.90;;;;;;4990268;28;20676;-72
2022/11/18 11:37:59;;;;;;;0.93;0.93;;;7.90;99.90;;;;;;4989034;28;20178;-73
2022/11/18 11:40:31;;;;;;;1.00;1.00;;;7.80;99.90;;;;;;5002153;28;20173;-73
2022/11/18 11:43:21;;;;;;;0.85;0.85;;;7.70;99.90;;;;;;4991075;28;20220;-73
2022/11/18 11:46:19;;;;;;;1.40;1.02;;;7.70;99.90;;;;;;4991951;28;20184;-73
2022/11/18 11:48:50;;;;;;;1.13;1.13;;;7.60;99.90;;;;;;4991401;28;20189;-72
2022/11/18 11:51:38;;;;;;;2.05;0.93;;;7.70;99.90;;;;;;4994987;28;20212;-72
2022/11/18 11:54:31;;;;;;;1.20;1.00;;;7.60;99.90;;;;;;4988987;28;20546;-72
2022/11/18 11:57:23;;;;;;;1.30;1.30;;;7.70;99.90;;;;;;4989936;28;20189;-72
2022/11/18 12:00:02;;;;;;;1.30;1.20;;;7.70;99.90;;;;;;4987589;28;20178;-72
2022/11/18 12:02:43;;;;;;;1.08;1.08;;;7.80;99.90;;;;;;4985100;28;20660;-72
2022/11/18 12:05:34;;;;;;;1.20;1.20;;;7.80;99.90;;;;;;4991362;28;20471;-72
2022/11/18 12:08:07;;;;;;;0.60;0.60;;;7.80;99.90;;;;;;4991032;28;20217;-73
2022/11/18 12:10:54;;;;;;;1.10;1.10;;;7.80;99.90;;;;;;4987603;28;20232;-74
2022/11/18 12:13:51;;;;;;;1.45;1.20;;;7.70;99.90;;;;;;4993796;28;20193;-73
2022/11/18 12:16:41;;;;;;;1.58;1.17;;;7.70;99.90;;;;;;4999918;28;20209;-73
2022/11/18 12:19:13;;;;;;;1.05;1.05;;;7.70;99.90;;;;;;4991850;28;20174;-73
2022/11/18 12:21:45;;;;;;;1.45;1.35;;;7.70;99.90;;;;;;4984744;28;20174;-73
2022/11/18 12:24:17;;;;;;;1.30;1.00;;;7.70;99.90;;;;;;4991163;28;20202;-73
2022/11/18 12:26:47;;;;;;;1.35;1.30;;;7.70;99.90;;;;;;4990645;28;20220;-73
2022/11/18 12:29:19;;;;;;;1.25;1.20;;;7.70;99.90;;;;;;4986285;28;20269;-73
2022/11/18 12:31:56;;;;;;;1.98;1.88;;;7.80;99.90;;;;;;4987398;28;20252;-72
2022/11/18 12:34:24;;;;;;;1.67;1.55;;;7.70;99.90;;;;;;4991798;28;20200;-73
2022/11/18 12:36:51;;;;;;;1.38;1.38;;;7.70;99.90;;;;;;4986711;28;20181;-72
2022/11/18 12:39:23;;;;;;;2.85;1.50;;;7.70;99.90;;;;;;4991651;28;20177;-72
2022/11/18 12:44:50;;;;;;;1.05;1.05;;;7.70;99.90;;;;;;4986333;28;20217;-71
2022/11/18 12:47:39;;;;;;;4.50;1.83;;;7.70;99.90;;;;;;4986817;28;20237;-72
2022/11/18 12:50:14;;;;;;;1.90;1.73;;;7.70;99.90;;;;;;4984785;28;20198;-71
2022/11/18 12:52:39;;;;;;;2.38;2.17;;;7.70;99.90;;;;;;4981195;28;20225;-72
2022/11/18 12:55:20;;;;;;;2.00;1.90;;;7.60;99.90;;;;;;4990348;28;20793;-72
2022/11/18 12:57:46;;;;;;;2.00;1.90;;;7.60;99.90;;;;;;4987121;28;20185;-72
2022/11/18 13:00:18;;;;;;;3.40;2.15;;;7.60;99.90;;;;;;4994769;28;20177;-72
2022/11/18 13:02:55;;;;;;;3.20;2.30;;;7.50;99.90;;;;;;4983463;28;20180;-72
2022/11/18 13:05:26;;;;;;;2.15;2.05;;;7.60;99.90;;;;;;4990322;28;20698;-72
2022/11/18 13:08:14;;;;;;;4.30;2.35;;;7.60;99.90;;;;;;4994313;28;20189;-72
2022/11/18 13:10:47;;;;;;;5.55;2.45;;;7.60;99.90;;;;;;4995763;28;20775;-72
2022/11/18 13:13:26;;;;;;;2.42;2.20;;;7.60;99.90;;;;;;4989203;28;20217;-72
2022/11/18 13:18:49;;;;;;;2.92;2.70;;;7.70;99.90;;;;;;5009524;28;20184;-73
2022/11/18 13:24:06;;;;;;;1.80;1.70;;;7.70;99.90;;;;;;4993556;28;20579;-72
2022/11/18 13:26:33;;;;;;;2.47;2.28;;;7.70;99.90;;;;;;4995832;28;20186;-72
2022/11/18 13:28:59;;;;;;;2.65;2.55;;;7.70;99.90;;;;;;4994911;28;20216;-73